createdAt,value
2018-03-23T00:00:54.201Z,77.30
2018-03-23T00:03:21.696Z,73.30
2018-03-23T00:05:49.247Z,75.72
2018-03-23T00:08:16.730Z,73.78
2018-03-23T00:10:44.236Z,71.85
2018-03-23T00:13:11.733Z,75.78
2018-03-23T00:15:39.285Z,75.68
2018-03-23T00:18:06.819Z,69.97
2018-03-23T00:20:34.320Z,78.75
2018-03-23T00:23:01.822Z,78.93
2018-03-23T00:25:30.188Z,79.55
2018-03-23T00:27:58.565Z,79.45
2018-03-23T00:30:26.929Z,77.97
2018-03-23T00:32:55.280Z,72.22
2018-03-23T00:35:22.869Z,74.30
2018-03-23T00:37:51.247Z,74.07
2018-03-23T00:40:19.696Z,74.05
2018-03-23T00:42:47.285Z,73.85
2018-03-23T00:45:14.872Z,76.87
2018-03-23T00:47:42.471Z,74.72
2018-03-23T00:50:10.125Z,74.12
2018-03-23T00:52:37.732Z,72.83
2018-03-23T00:55:06.112Z,74.22
2018-03-23T00:57:34.498Z,77.18
2018-03-23T01:00:02.872Z,78.05
2018-03-23T01:02:31.224Z,74.22
2018-03-23T01:04:58.810Z,75.35
2018-03-23T01:07:27.163Z,72.65
2018-03-23T01:09:54.744Z,83.97
2018-03-23T01:12:22.408Z,83.12
2018-03-23T01:14:49.992Z,83.87
2018-03-23T01:17:17.590Z,87.80
2018-03-23T01:19:45.189Z,86.20
2018-03-23T01:22:15.577Z,86.47
2018-03-23T01:24:43.188Z,82.93
2018-03-23T01:27:11.617Z,87.82
2018-03-23T01:29:39.225Z,90.05
2018-03-23T01:32:07.609Z,99.00
2018-03-23T01:34:35.988Z,103.20
2018-03-23T01:37:04.384Z,103.85
2018-03-23T01:39:31.976Z,106.82
2018-03-23T01:41:59.559Z,99.47
2018-03-23T01:44:27.140Z,96.03
2018-03-23T01:46:54.716Z,95.75
2018-03-23T01:49:23.078Z,93.93
2018-03-23T01:51:50.669Z,100.00
2018-03-23T01:54:18.274Z,96.90
2018-03-23T01:56:45.861Z,100.95
2018-03-23T01:59:14.217Z,96.87
2018-03-23T02:01:41.904Z,94.00
2018-03-23T02:04:10.289Z,97.10
2018-03-23T02:06:38.664Z,98.20
2018-03-23T02:09:07.036Z,89.37
2018-03-23T02:11:35.391Z,90.32
2018-03-23T02:14:03.004Z,92.75
2018-03-23T02:16:30.614Z,97.95
2018-03-23T02:18:58.208Z,91.15
2018-03-23T02:21:26.580Z,93.87
2018-03-23T02:23:54.251Z,88.07
2018-03-23T02:26:22.620Z,84.15
2018-03-23T02:28:50.988Z,88.80
2018-03-23T02:31:18.582Z,88.22
2018-03-23T02:33:46.227Z,89.05
2018-03-23T02:36:14.592Z,88.12
2018-03-23T02:38:42.944Z,87.35
2018-03-23T02:41:10.541Z,88.82
2018-03-23T02:43:38.907Z,88.27
2018-03-23T02:46:06.513Z,87.80
2018-03-23T02:48:34.156Z,86.75
2018-03-23T02:51:02.604Z,87.03
2018-03-23T02:53:30.197Z,91.00
2018-03-23T02:55:58.582Z,94.53
2018-03-23T02:58:26.208Z,98.72
2018-03-23T03:00:53.797Z,96.07
2018-03-23T03:03:21.940Z,98.15
2018-03-23T03:05:49.529Z,92.97
2018-03-23T03:08:17.179Z,97.17
2018-03-23T03:10:45.549Z,95.73
2018-03-23T03:13:13.144Z,95.82
2018-03-23T03:15:40.736Z,94.65
2018-03-23T03:18:08.350Z,87.15
2018-03-23T03:20:36.777Z,101.22
2018-03-23T03:23:04.366Z,91.18
2018-03-23T03:25:32.053Z,93.50
2018-03-23T03:28:00.432Z,89.13
2018-03-23T03:30:28.800Z,97.10
2018-03-23T03:32:57.188Z,101.47
2018-03-23T03:35:25.544Z,93.85
2018-03-23T03:37:53.128Z,100.40
2018-03-23T03:40:20.756Z,96.12
2018-03-23T03:42:48.345Z,96.20
2018-03-23T03:45:17.312Z,89.75
2018-03-23T03:47:44.899Z,85.50
2018-03-23T03:50:13.278Z,86.55
2018-03-23T03:52:41.636Z,79.57
2018-03-23T03:55:09.331Z,81.60
2018-03-23T03:57:37.709Z,83.25
2018-03-23T04:00:06.078Z,84.07
2018-03-23T04:02:34.431Z,78.93
2018-03-23T04:05:02.036Z,84.55
2018-03-23T04:07:30.376Z,88.50
2018-03-23T04:09:58.011Z,89.70
2018-03-23T04:12:25.583Z,88.53
2018-03-23T04:14:53.283Z,84.60
2018-03-23T04:17:22.032Z,84.03
2018-03-23T04:19:49.633Z,81.75
2018-03-23T04:22:18.152Z,84.90
2018-03-23T04:24:45.783Z,84.37
2018-03-23T04:27:14.127Z,74.72
2018-03-23T04:29:42.523Z,74.15
2018-03-23T04:32:10.104Z,70.75
2018-03-23T04:34:38.469Z,72.72
2018-03-23T04:37:06.145Z,64.47
2018-03-23T04:39:34.524Z,62.78
2018-03-23T04:42:02.876Z,73.07
2018-03-23T04:44:30.481Z,72.93
2018-03-23T04:46:58.065Z,63.90
2018-03-23T04:49:25.668Z,57.72
2018-03-23T04:51:54.028Z,67.37
2018-03-23T04:54:21.620Z,59.38
2018-03-23T04:56:50.000Z,50.78
2018-03-23T04:59:18.372Z,55.72
2018-03-23T05:01:45.977Z,49.43
2018-03-23T05:04:13.580Z,48.15
2018-03-23T05:06:41.248Z,48.08
2018-03-23T05:09:08.913Z,53.00
2018-03-23T05:11:37.273Z,55.00
2018-03-23T05:14:04.958Z,60.97
2018-03-23T05:16:33.315Z,64.63
2018-03-23T05:19:01.003Z,62.03
2018-03-23T05:21:29.350Z,59.90
2018-03-23T05:23:57.735Z,55.58
2018-03-23T05:26:25.421Z,54.83
2018-03-23T05:28:53.800Z,52.22
2018-03-23T05:31:22.144Z,55.47
2018-03-23T05:33:50.540Z,48.50
2018-03-23T05:36:18.219Z,46.53
2018-03-23T05:38:46.640Z,46.70
2018-03-23T05:41:14.224Z,39.17
2018-03-23T05:43:41.919Z,39.83
2018-03-23T05:46:10.303Z,34.10
2018-03-23T05:48:37.998Z,32.90
2018-03-23T05:51:05.582Z,31.47
2018-03-23T05:53:33.276Z,32.77
2018-03-23T05:56:00.844Z,32.23
2018-03-23T05:58:28.517Z,29.83
2018-03-23T06:00:56.876Z,34.40
2018-03-23T06:03:24.468Z,31.97
2018-03-23T06:05:52.226Z,29.80
2018-03-23T06:08:20.572Z,30.00
2018-03-23T06:10:48.258Z,30.03
2018-03-23T06:13:16.640Z,28.30
2018-03-23T06:15:45.017Z,28.62
2018-03-23T06:18:13.376Z,28.23
2018-03-23T06:20:41.107Z,26.17
2018-03-23T06:23:08.771Z,25.47
2018-03-23T06:25:36.381Z,24.83
2018-03-23T06:28:04.754Z,25.33
2018-03-23T06:30:32.330Z,23.00
2018-03-23T06:33:00.697Z,22.77
2018-03-23T06:35:29.070Z,23.52
2018-03-23T06:37:56.656Z,23.63
2018-03-23T06:40:24.240Z,22.73
2018-03-23T06:42:51.832Z,25.70
2018-03-23T06:45:19.409Z,22.87
2018-03-23T06:47:47.083Z,23.23
2018-03-23T06:50:15.424Z,20.53
2018-03-23T06:52:43.014Z,23.57
2018-03-23T06:55:10.596Z,21.40
2018-03-23T06:57:39.035Z,22.67
2018-03-23T07:00:06.618Z,20.80
2018-03-23T07:02:34.289Z,21.77
2018-03-23T07:05:02.639Z,23.67
2018-03-23T07:07:30.367Z,36.43
2018-03-23T07:09:57.948Z,21.90
2018-03-23T07:12:25.536Z,20.40
2018-03-23T07:14:53.892Z,22.73
2018-03-23T07:17:21.483Z,20.13
2018-03-23T07:19:49.149Z,20.17
2018-03-23T07:22:17.543Z,21.43
2018-03-23T07:24:45.129Z,22.30
2018-03-23T07:27:12.920Z,20.83
2018-03-23T07:29:40.510Z,22.00
2018-03-23T07:32:08.100Z,19.60
2018-03-23T07:34:35.796Z,20.53
2018-03-23T07:37:03.405Z,19.50
2018-03-23T07:39:31.756Z,20.50
2018-03-23T07:41:59.340Z,21.57
2018-03-23T07:44:27.698Z,18.73
2018-03-23T07:46:55.299Z,19.73
2018-03-23T07:49:22.888Z,21.70
2018-03-23T07:51:50.496Z,18.37
2018-03-23T07:54:18.088Z,18.87
2018-03-23T07:56:45.666Z,19.53
2018-03-23T07:59:13.354Z,19.77
2018-03-23T08:01:40.941Z,18.87
2018-03-23T08:04:09.316Z,17.57
2018-03-23T08:06:36.892Z,21.03
2018-03-23T08:09:05.265Z,20.30
2018-03-23T08:11:33.621Z,23.90
2018-03-23T08:14:01.200Z,25.33
2018-03-23T08:16:29.545Z,19.23
2018-03-23T08:18:57.127Z,21.27
2018-03-23T08:21:24.707Z,19.20
2018-03-23T08:23:53.072Z,18.23
2018-03-23T08:26:21.452Z,18.20
2018-03-23T08:28:49.056Z,19.00
2018-03-23T08:31:16.728Z,18.43
2018-03-23T08:33:44.418Z,16.47
2018-03-23T08:36:12.827Z,16.87
2018-03-23T08:38:41.175Z,18.37
2018-03-23T08:41:08.755Z,17.87
2018-03-23T08:43:36.359Z,19.37
2018-03-23T08:46:03.955Z,18.57
2018-03-23T08:48:31.545Z,19.03
2018-03-23T08:50:59.909Z,17.93
2018-03-23T08:53:27.515Z,17.73
2018-03-23T08:55:55.155Z,17.77
2018-03-23T08:58:23.700Z,17.63
2018-03-23T09:00:52.095Z,21.20
2018-03-23T09:03:19.696Z,20.77
2018-03-23T09:05:47.273Z,17.77
2018-03-23T09:08:14.873Z,16.67
2018-03-23T09:10:42.601Z,15.40
2018-03-23T09:13:10.283Z,17.17
2018-03-23T09:15:37.894Z,15.37
2018-03-23T09:18:05.500Z,16.53
2018-03-23T09:20:33.116Z,14.37
2018-03-23T09:23:01.479Z,16.23
2018-03-23T09:25:29.861Z,16.20
2018-03-23T09:27:58.212Z,15.87
2018-03-23T09:30:25.801Z,16.60
2018-03-23T09:32:54.202Z,16.10
2018-03-23T09:35:21.787Z,16.27
2018-03-23T09:37:49.411Z,14.97
2018-03-23T09:40:17.009Z,15.00
2018-03-23T09:42:44.592Z,16.13
2018-03-23T09:45:12.269Z,13.67
2018-03-23T09:47:40.045Z,16.63
2018-03-23T09:50:08.406Z,16.93
2018-03-23T09:52:36.084Z,15.43
2018-03-23T09:55:04.472Z,15.83
2018-03-23T09:57:32.862Z,16.10
2018-03-23T10:00:00.452Z,16.80
2018-03-23T10:02:28.069Z,17.97
2018-03-23T10:04:56.430Z,17.17
2018-03-23T10:07:24.015Z,15.90
2018-03-23T10:09:52.393Z,17.13
2018-03-23T10:12:20.760Z,17.70
2018-03-23T10:14:48.371Z,16.13
2018-03-23T10:17:15.960Z,16.87
2018-03-23T10:19:43.540Z,16.97
2018-03-23T10:22:11.126Z,17.20
2018-03-23T10:24:39.475Z,18.67
2018-03-23T10:27:07.156Z,23.40
2018-03-23T10:29:35.533Z,15.33
2018-03-23T10:32:03.910Z,18.53
2018-03-23T10:34:32.271Z,18.23
2018-03-23T10:36:59.864Z,17.47
2018-03-23T10:39:27.446Z,18.67
2018-03-23T10:41:55.068Z,19.53
2018-03-23T10:44:23.419Z,18.13
2018-03-23T10:46:51.023Z,20.17
2018-03-23T10:49:18.602Z,20.30
2018-03-23T10:51:46.198Z,20.43
2018-03-23T10:54:13.778Z,19.17
2018-03-23T10:56:41.449Z,18.80
2018-03-23T10:59:09.788Z,17.27
2018-03-23T11:01:43.007Z,17.40
2018-03-23T11:04:10.597Z,17.83
2018-03-23T11:06:38.957Z,17.13
2018-03-23T11:09:06.676Z,20.23
2018-03-23T11:11:34.281Z,17.97
2018-03-23T11:14:02.684Z,20.10
2018-03-23T11:16:30.280Z,18.90
2018-03-23T11:18:57.920Z,19.83
2018-03-23T11:21:25.566Z,21.53
2018-03-23T11:23:53.149Z,18.67
2018-03-23T11:26:20.733Z,18.83
2018-03-23T11:28:48.338Z,19.43
2018-03-23T11:31:16.697Z,19.33
2018-03-23T11:33:45.211Z,19.80
2018-03-23T11:36:12.850Z,22.53
2018-03-23T11:38:41.229Z,23.87
2018-03-23T11:41:09.709Z,20.27
2018-03-23T11:43:37.377Z,21.37
2018-03-23T11:46:05.746Z,21.20
2018-03-23T11:48:33.340Z,21.20
2018-03-23T11:51:00.925Z,20.23
2018-03-23T11:53:28.508Z,20.87
2018-03-23T11:55:56.208Z,23.10
2018-03-23T11:58:24.559Z,23.87
2018-03-23T12:00:52.152Z,22.63
2018-03-23T12:03:20.515Z,23.20
2018-03-23T12:05:48.870Z,21.03
2018-03-23T12:08:16.445Z,18.80
2018-03-23T12:10:44.048Z,19.10
2018-03-23T12:13:11.640Z,20.60
2018-03-23T12:15:39.349Z,20.27
2018-03-23T12:18:07.697Z,23.03
2018-03-23T12:20:35.388Z,20.03
2018-03-23T12:23:03.774Z,20.87
2018-03-23T12:25:31.365Z,21.80
2018-03-23T12:27:58.956Z,20.23
2018-03-23T12:30:26.575Z,21.37
2018-03-23T12:32:54.218Z,19.73
2018-03-23T12:35:22.611Z,22.43
2018-03-23T12:37:50.949Z,23.50
2018-03-23T12:40:19.378Z,23.43
2018-03-23T12:42:46.976Z,26.10
2018-03-23T12:45:14.575Z,22.20
2018-03-23T12:47:42.173Z,21.87
2018-03-23T12:50:09.803Z,21.27
2018-03-23T12:52:37.427Z,21.67
2018-03-23T12:55:05.008Z,19.97
2018-03-23T12:57:33.409Z,20.53
2018-03-23T13:00:01.101Z,19.67
2018-03-23T13:02:28.739Z,19.90
2018-03-23T13:04:56.321Z,21.30
2018-03-23T13:07:23.905Z,21.73
2018-03-23T13:09:51.508Z,20.30
2018-03-23T13:12:19.104Z,18.70
2018-03-23T13:14:46.758Z,20.90
2018-03-23T13:17:15.195Z,21.43
2018-03-23T13:19:42.794Z,19.17
2018-03-23T13:22:10.552Z,19.43
2018-03-23T13:24:38.305Z,19.40
2018-03-23T13:27:05.935Z,20.83
2018-03-23T13:29:33.624Z,22.07
2018-03-23T13:32:01.981Z,19.53
2018-03-23T13:34:29.560Z,19.93
2018-03-23T13:36:57.937Z,19.97
2018-03-23T13:39:26.296Z,20.10
2018-03-23T13:41:53.885Z,19.63
2018-03-23T13:44:21.474Z,21.20
2018-03-23T13:46:49.078Z,20.30
2018-03-23T13:49:16.655Z,22.43
2018-03-23T13:51:45.020Z,22.23
2018-03-23T13:54:12.685Z,22.40
2018-03-23T13:56:40.313Z,22.17
2018-03-23T13:59:13.584Z,21.47
2018-03-23T14:01:41.209Z,20.47
2018-03-23T14:04:09.592Z,19.17
2018-03-23T14:06:37.953Z,20.20
2018-03-23T14:09:05.530Z,18.47
2018-03-23T14:11:33.935Z,19.60
2018-03-23T14:14:01.662Z,19.13
2018-03-23T14:16:30.032Z,18.67
2018-03-23T14:18:57.639Z,19.20
2018-03-23T14:21:25.226Z,21.10
2018-03-23T14:23:52.830Z,20.03
2018-03-23T14:26:21.273Z,17.73
2018-03-23T14:28:49.700Z,18.03
2018-03-23T14:31:17.358Z,17.20
2018-03-23T14:33:45.706Z,17.33
2018-03-23T14:36:13.296Z,18.37
2018-03-23T14:38:41.652Z,17.37
2018-03-23T14:41:09.520Z,15.83
2018-03-23T14:43:37.092Z,15.97
2018-03-23T14:46:04.757Z,15.30
2018-03-23T14:48:33.143Z,14.50
2018-03-23T14:51:01.509Z,29.70
2018-03-23T14:53:29.147Z,21.53
2018-03-23T14:55:56.840Z,19.03
2018-03-23T14:58:25.287Z,17.17
2018-03-23T15:00:52.882Z,14.97
2018-03-23T15:03:21.232Z,15.40
2018-03-23T15:05:48.811Z,17.20
2018-03-23T15:08:16.458Z,17.37
2018-03-23T15:10:44.093Z,19.87
2018-03-23T15:13:11.704Z,21.43
2018-03-23T15:15:40.080Z,21.20
2018-03-23T15:18:07.716Z,19.87
2018-03-23T15:20:35.509Z,18.73
2018-03-23T15:23:03.855Z,19.50
2018-03-23T15:25:31.439Z,19.37
2018-03-23T15:27:59.044Z,18.67
2018-03-23T15:30:26.638Z,18.03
2018-03-23T15:32:54.248Z,17.60
2018-03-23T15:35:21.896Z,19.63
2018-03-23T15:37:50.256Z,19.50
2018-03-23T15:40:17.871Z,18.30
2018-03-23T15:42:45.503Z,17.97
2018-03-23T15:45:13.971Z,17.53
2018-03-23T15:47:41.543Z,16.77
2018-03-23T15:50:09.285Z,18.73
2018-03-23T15:52:36.999Z,21.17
2018-03-23T15:55:04.585Z,19.30
2018-03-23T15:57:32.164Z,18.23
2018-03-23T15:59:59.803Z,21.67
2018-03-23T16:02:27.392Z,17.90
2018-03-23T16:04:55.128Z,25.50
2018-03-23T16:07:22.869Z,19.93
2018-03-23T16:09:50.477Z,19.43
2018-03-23T16:12:18.160Z,17.50
2018-03-23T16:14:46.516Z,17.73
2018-03-23T16:17:14.096Z,17.00
2018-03-23T16:19:42.453Z,18.60
2018-03-23T16:22:10.135Z,17.97
2018-03-23T16:24:37.769Z,17.33
2018-03-23T16:27:05.351Z,18.77
2018-03-23T16:29:33.721Z,17.43
2018-03-23T16:32:01.330Z,17.73
2018-03-23T16:34:28.925Z,17.50
2018-03-23T16:36:56.571Z,17.33
2018-03-23T16:39:24.234Z,23.53
2018-03-23T16:41:51.816Z,20.33
2018-03-23T16:44:19.448Z,18.73
2018-03-23T16:46:47.015Z,20.03
2018-03-23T16:49:14.621Z,21.23
2018-03-23T16:51:42.225Z,32.73
2018-03-23T16:54:09.824Z,26.83
2018-03-23T16:56:37.401Z,21.40
2018-03-23T16:59:05.024Z,20.57
2018-03-23T17:01:32.644Z,18.43
2018-03-23T17:04:01.050Z,21.13
2018-03-23T17:06:28.628Z,19.77
2018-03-23T17:08:56.212Z,18.87
2018-03-23T17:11:23.806Z,20.43
2018-03-23T17:13:52.156Z,23.43
2018-03-23T17:16:19.837Z,20.43
2018-03-23T17:18:48.216Z,17.70
2018-03-23T17:21:16.559Z,19.17
2018-03-23T17:23:44.140Z,19.87
2018-03-23T17:26:11.820Z,18.70
2018-03-23T17:28:40.176Z,17.10
2018-03-23T17:31:07.764Z,18.17
2018-03-23T17:33:36.108Z,21.03
2018-03-23T17:36:03.804Z,19.80
2018-03-23T17:38:32.184Z,19.97
2018-03-23T17:41:00.570Z,20.97
2018-03-23T17:43:29.090Z,19.33
2018-03-23T17:45:56.655Z,27.13
2018-03-23T17:48:24.228Z,23.13
2018-03-23T17:50:51.928Z,22.87
2018-03-23T17:53:20.301Z,22.53
2018-03-23T17:55:48.659Z,20.83
2018-03-23T17:58:17.030Z,23.80
2018-03-23T18:00:44.786Z,22.17
2018-03-23T18:03:12.372Z,19.23
2018-03-23T18:05:39.965Z,20.30
2018-03-23T18:08:07.624Z,20.03
2018-03-23T18:10:35.221Z,20.27
2018-03-23T18:13:02.822Z,21.23
2018-03-23T18:15:30.545Z,21.57
2018-03-23T18:17:58.143Z,21.97
2018-03-23T18:20:25.832Z,23.03
2018-03-23T18:22:53.511Z,20.47
2018-03-23T18:25:21.127Z,23.77
2018-03-23T18:27:48.732Z,26.57
2018-03-23T18:30:16.344Z,25.17
2018-03-23T18:32:44.018Z,28.30
2018-03-23T18:35:11.630Z,27.70
2018-03-23T18:37:39.209Z,28.50
2018-03-23T18:40:06.881Z,29.70
2018-03-23T18:42:34.478Z,29.30
2018-03-23T18:45:02.848Z,29.20
2018-03-23T18:47:31.233Z,29.20
2018-03-23T18:49:59.597Z,29.77
2018-03-23T18:52:27.945Z,30.63
2018-03-23T18:54:55.526Z,30.50
2018-03-23T18:57:23.124Z,31.77
2018-03-23T18:59:50.712Z,30.47
2018-03-23T19:02:18.616Z,31.83
2018-03-23T19:04:46.986Z,31.57
2018-03-23T19:07:14.699Z,34.60
2018-03-23T19:09:42.344Z,34.30
2018-03-23T19:12:10.699Z,36.47
2018-03-23T19:14:38.295Z,36.07
2018-03-23T19:17:06.055Z,38.70
2018-03-23T19:19:33.659Z,51.17
2018-03-23T19:22:01.258Z,49.47
2018-03-23T19:24:29.623Z,37.93
2018-03-23T19:26:57.308Z,34.77
2018-03-23T19:29:25.685Z,37.47
2018-03-23T19:31:54.113Z,33.47
2018-03-23T19:34:21.754Z,32.40
2018-03-23T19:36:49.354Z,35.60
2018-03-23T19:39:16.924Z,36.03
2018-03-23T19:41:44.544Z,33.97
2018-03-23T19:44:12.128Z,34.13
2018-03-23T19:46:39.784Z,32.17
2018-03-23T19:49:07.328Z,32.23
2018-03-23T19:51:34.942Z,31.83
2018-03-23T19:54:02.627Z,31.33
2018-03-23T19:56:31.899Z,33.63
2018-03-23T19:59:00.268Z,31.33
2018-03-23T20:01:27.872Z,31.57
2018-03-23T20:03:55.471Z,29.40
2018-03-23T20:06:23.069Z,29.63
2018-03-23T20:08:50.644Z,29.90
2018-03-23T20:11:18.997Z,31.80
2018-03-23T20:13:53.088Z,29.83
2018-03-23T20:16:20.705Z,32.50
2018-03-23T20:18:48.276Z,31.53
2018-03-23T20:21:15.920Z,30.43
2018-03-23T20:23:43.531Z,30.35
2018-03-23T20:26:11.133Z,28.58
2018-03-23T20:28:42.874Z,29.23
2018-03-23T20:31:10.483Z,27.43
2018-03-23T20:33:38.070Z,28.60
2018-03-23T20:36:05.705Z,27.07
2018-03-23T20:38:33.333Z,30.13
2018-03-23T20:41:00.961Z,31.77
2018-03-23T20:43:29.376Z,27.60
2018-03-23T20:45:57.735Z,25.33
2018-03-23T20:48:25.421Z,27.55
2018-03-23T20:50:53.921Z,25.67
2018-03-23T20:53:21.536Z,27.50
2018-03-23T20:55:49.309Z,26.93
2018-03-23T20:58:17.677Z,32.63
2018-03-23T21:00:46.799Z,27.98
2018-03-23T21:03:15.152Z,26.50
2018-03-23T21:05:42.745Z,29.30
2018-03-23T21:08:11.117Z,30.50
2018-03-23T21:10:39.502Z,28.67
2018-03-23T21:13:07.851Z,29.20
2018-03-23T21:15:35.535Z,29.57
2018-03-23T21:18:03.917Z,29.87
2018-03-23T21:20:32.292Z,32.40
2018-03-23T21:23:00.648Z,30.60
2018-03-23T21:25:28.253Z,27.70
2018-03-23T21:27:55.844Z,30.70
2018-03-23T21:30:23.742Z,29.85
2018-03-23T21:32:51.340Z,30.10
2018-03-23T21:35:18.985Z,28.17
2018-03-23T21:37:47.357Z,29.27
2018-03-23T21:40:15.733Z,31.75
2018-03-23T21:42:43.325Z,32.83
2018-03-23T21:45:10.966Z,29.17
2018-03-23T21:47:39.392Z,29.90
2018-03-23T21:50:06.993Z,29.58
2018-03-23T21:52:34.588Z,30.40
2018-03-23T21:55:02.278Z,28.83
2018-03-23T21:57:29.965Z,29.17
2018-03-23T21:59:57.565Z,29.87
2018-03-23T22:02:25.189Z,27.40
2018-03-23T22:04:52.922Z,27.47
2018-03-23T22:07:21.393Z,27.95
2018-03-23T22:09:49.119Z,30.77
2018-03-23T22:12:16.876Z,29.73
2018-03-23T22:14:45.265Z,31.60
2018-03-23T22:17:13.680Z,32.03
2018-03-23T22:19:41.314Z,31.08
2018-03-23T22:22:09.282Z,31.50
2018-03-23T22:24:37.662Z,32.00
2018-03-23T22:27:05.276Z,33.55
2018-03-23T22:29:32.939Z,37.22
2018-03-23T22:32:00.632Z,33.45
2018-03-23T22:34:28.257Z,31.58
2018-03-23T22:36:55.864Z,30.90
2018-03-23T22:39:23.488Z,31.23
2018-03-23T22:41:51.782Z,32.03
2018-03-23T22:44:19.650Z,29.02
2018-03-23T22:46:47.493Z,29.73
2018-03-23T22:49:15.418Z,28.27
2018-03-23T22:51:43.063Z,30.73
2018-03-23T22:54:11.093Z,31.83
2018-03-23T22:56:38.727Z,32.63
2018-03-23T22:59:06.388Z,32.23
2018-03-23T23:01:34.053Z,34.03
2018-03-23T23:04:01.974Z,36.25
2018-03-23T23:06:29.733Z,35.80
2018-03-23T23:08:57.377Z,37.90
2018-03-23T23:11:25.156Z,34.28
2018-03-23T23:13:52.877Z,36.83
2018-03-23T23:16:20.590Z,37.95
2018-03-23T23:18:48.189Z,36.72
2018-03-23T23:21:15.859Z,37.97
2018-03-23T23:23:43.593Z,38.95
2018-03-23T23:26:12.041Z,37.65
2018-03-23T23:28:39.721Z,35.80
2018-03-23T23:31:07.446Z,40.65
2018-03-23T23:33:35.147Z,35.90
2018-03-23T23:36:03.589Z,37.17
2018-03-23T23:38:31.246Z,36.28
2018-03-23T23:40:58.924Z,38.35
2018-03-23T23:43:27.287Z,44.15
2018-03-23T23:45:54.921Z,37.28
2018-03-23T23:48:23.364Z,41.95
2018-03-23T23:50:50.964Z,36.08
2018-03-23T23:53:19.388Z,40.33
2018-03-23T23:55:47.006Z,44.10
2018-03-23T23:58:15.365Z,42.83
